sensor_id;sensor_type;location;lat;lon;timestamp;pressure;altitude;pressure_sealevel;temperature;humidity
73633;BME280;61927;50.080;14.418;2023-03-19T00:01:34;99361.63;;;6.78;62.36
73633;BME280;61927;50.080;14.418;2023-03-19T00:04:00;99364.13;;;6.81;62.00
73633;BME280;61927;50.080;14.418;2023-03-19T00:06:25;99365.03;;;6.80;61.77
73633;BME280;61927;50.080;14.418;2023-03-19T00:08:51;99365.19;;;6.77;62.12
73633;BME280;61927;50.080;14.418;2023-03-19T00:11:16;99366.34;;;6.71;62.08
73633;BME280;61927;50.080;14.418;2023-03-19T00:13:42;99370.13;;;6.66;62.09
73633;BME280;61927;50.080;14.418;2023-03-19T00:16:07;99377.38;;;6.61;62.31
73633;BME280;61927;50.080;14.418;2023-03-19T00:18:33;99381.94;;;6.57;62.59
73633;BME280;61927;50.080;14.418;2023-03-19T00:20:59;99383.00;;;6.53;62.76
73633;BME280;61927;50.080;14.418;2023-03-19T00:23:24;99383.81;;;6.55;62.97
73633;BME280;61927;50.080;14.418;2023-03-19T00:25:50;99383.22;;;6.48;62.78
73633;BME280;61927;50.080;14.418;2023-03-19T00:28:15;99389.44;;;6.47;63.08
73633;BME280;61927;50.080;14.418;2023-03-19T00:30:41;99377.16;;;6.46;62.88
73633;BME280;61927;50.080;14.418;2023-03-19T00:33:09;99379.88;;;6.45;63.10
73633;BME280;61927;50.080;14.418;2023-03-19T00:35:34;99382.66;;;6.42;63.05
73633;BME280;61927;50.080;14.418;2023-03-19T00:38:00;99380.22;;;6.37;62.98
73633;BME280;61927;50.080;14.418;2023-03-19T00:40:25;99376.75;;;6.37;63.60
73633;BME280;61927;50.080;14.418;2023-03-19T00:42:51;99374.97;;;6.37;63.39
73633;BME280;61927;50.080;14.418;2023-03-19T00:45:17;99371.41;;;6.38;63.53
73633;BME280;61927;50.080;14.418;2023-03-19T00:47:42;99379.38;;;6.37;63.21
73633;BME280;61927;50.080;14.418;2023-03-19T00:50:08;99373.25;;;6.36;63.67
73633;BME280;61927;50.080;14.418;2023-03-19T00:52:34;99374.38;;;6.31;63.82
73633;BME280;61927;50.080;14.418;2023-03-19T00:54:59;99379.06;;;6.24;64.02
73633;BME280;61927;50.080;14.418;2023-03-19T00:57:25;99378.44;;;6.19;64.11
73633;BME280;61927;50.080;14.418;2023-03-19T00:59:51;99383.06;;;6.14;64.70
73633;BME280;61927;50.080;14.418;2023-03-19T01:02:16;99378.91;;;6.08;64.68
73633;BME280;61927;50.080;14.418;2023-03-19T01:04:42;99384.19;;;6.08;64.73
73633;BME280;61927;50.080;14.418;2023-03-19T01:07:08;99377.78;;;6.14;64.93
73633;BME280;61927;50.080;14.418;2023-03-19T01:09:33;99379.44;;;6.17;64.27
73633;BME280;61927;50.080;14.418;2023-03-19T01:12:00;99377.78;;;6.14;63.50
73633;BME280;61927;50.080;14.418;2023-03-19T01:14:29;99368.38;;;6.08;63.95
73633;BME280;61927;50.080;14.418;2023-03-19T01:16:55;99366.00;;;6.02;64.12
73633;BME280;61927;50.080;14.418;2023-03-19T01:19:20;99363.53;;;5.99;64.31
73633;BME280;61927;50.080;14.418;2023-03-19T01:21:46;99372.13;;;6.03;64.93
73633;BME280;61927;50.080;14.418;2023-03-19T01:24:13;99367.66;;;6.05;64.31
73633;BME280;61927;50.080;14.418;2023-03-19T01:26:39;99368.44;;;6.07;64.16
73633;BME280;61927;50.080;14.418;2023-03-19T01:29:05;99370.81;;;6.13;64.57
73633;BME280;61927;50.080;14.418;2023-03-19T01:31:31;99373.44;;;6.13;63.85
73633;BME280;61927;50.080;14.418;2023-03-19T01:33:56;99374.38;;;6.12;63.84
73633;BME280;61927;50.080;14.418;2023-03-19T01:36:22;99381.34;;;6.13;63.87
73633;BME280;61927;50.080;14.418;2023-03-19T01:38:47;99385.97;;;6.08;64.61
73633;BME280;61927;50.080;14.418;2023-03-19T01:41:13;99375.75;;;6.00;64.79
73633;BME280;61927;50.080;14.418;2023-03-19T01:43:38;99376.81;;;5.96;64.60
73633;BME280;61927;50.080;14.418;2023-03-19T01:46:15;99373.53;;;5.91;64.39
73633;BME280;61927;50.080;14.418;2023-03-19T01:48:53;99376.25;;;5.90;64.65
73633;BME280;61927;50.080;14.418;2023-03-19T01:51:21;99376.41;;;5.85;64.95
73633;BME280;61927;50.080;14.418;2023-03-19T01:53:50;99372.78;;;5.88;64.96
73633;BME280;61927;50.080;14.418;2023-03-19T01:56:21;99370.78;;;5.94;64.46
73633;BME280;61927;50.080;14.418;2023-03-19T01:58:48;99366.94;;;6.01;64.56
73633;BME280;61927;50.080;14.418;2023-03-19T02:01:17;99369.31;;;6.07;63.99
73633;BME280;61927;50.080;14.418;2023-03-19T02:03:44;99362.13;;;6.11;64.52
73633;BME280;61927;50.080;14.418;2023-03-19T02:06:11;99357.13;;;6.05;64.40
73633;BME280;61927;50.080;14.418;2023-03-19T02:08:37;99353.63;;;6.04;64.14
73633;BME280;61927;50.080;14.418;2023-03-19T02:11:03;99350.41;;;5.98;64.74
73633;BME280;61927;50.080;14.418;2023-03-19T02:13:29;99351.53;;;5.92;64.92
73633;BME280;61927;50.080;14.418;2023-03-19T02:15:55;99368.38;;;5.88;64.50
73633;BME280;61927;50.080;14.418;2023-03-19T02:18:21;99359.75;;;5.84;64.94
73633;BME280;61927;50.080;14.418;2023-03-19T02:20:49;99357.19;;;5.83;65.05
73633;BME280;61927;50.080;14.418;2023-03-19T02:26:08;99361.47;;;5.86;64.95
73633;BME280;61927;50.080;14.418;2023-03-19T02:28:34;99353.69;;;5.82;64.95
73633;BME280;61927;50.080;14.418;2023-03-19T02:31:01;99347.66;;;5.80;65.58
73633;BME280;61927;50.080;14.418;2023-03-19T02:33:26;99353.84;;;5.79;65.68
73633;BME280;61927;50.080;14.418;2023-03-19T02:35:52;99352.06;;;5.80;65.53
73633;BME280;61927;50.080;14.418;2023-03-19T02:38:19;99360.88;;;5.79;65.88
73633;BME280;61927;50.080;14.418;2023-03-19T02:40:51;99368.06;;;5.75;65.62
73633;BME280;61927;50.080;14.418;2023-03-19T02:43:19;99366.53;;;5.70;65.86
73633;BME280;61927;50.080;14.418;2023-03-19T02:45:45;99375.50;;;5.66;65.93
73633;BME280;61927;50.080;14.418;2023-03-19T02:48:10;99375.50;;;5.66;65.91
73633;BME280;61927;50.080;14.418;2023-03-19T02:50:36;99376.56;;;5.62;65.56
73633;BME280;61927;50.080;14.418;2023-03-19T02:53:01;99381.75;;;5.63;66.30
73633;BME280;61927;50.080;14.418;2023-03-19T02:55:27;99378.25;;;5.63;66.05
73633;BME280;61927;50.080;14.418;2023-03-19T02:57:52;99377.47;;;5.61;65.28
73633;BME280;61927;50.080;14.418;2023-03-19T03:00:19;99381.88;;;5.60;65.78
73633;BME280;61927;50.080;14.418;2023-03-19T03:02:44;99376.69;;;5.59;65.91
73633;BME280;61927;50.080;14.418;2023-03-19T03:05:10;99379.19;;;5.62;65.66
73633;BME280;61927;50.080;14.418;2023-03-19T03:07:36;99388.66;;;5.66;65.27
73633;BME280;61927;50.080;14.418;2023-03-19T03:10:01;99385.31;;;5.62;65.55
73633;BME280;61927;50.080;14.418;2023-03-19T03:12:27;99383.59;;;5.61;65.38
73633;BME280;61927;50.080;14.418;2023-03-19T03:14:53;99389.19;;;5.54;65.85
73633;BME280;61927;50.080;14.418;2023-03-19T03:17:19;99387.53;;;5.51;65.98
73633;BME280;61927;50.080;14.418;2023-03-19T03:19:44;99392.06;;;5.47;65.89
73633;BME280;61927;50.080;14.418;2023-03-19T03:22:09;99381.06;;;5.38;66.20
73633;BME280;61927;50.080;14.418;2023-03-19T03:24:35;99382.25;;;5.31;66.14
73633;BME280;61927;50.080;14.418;2023-03-19T03:27:01;99388.63;;;5.25;66.39
73633;BME280;61927;50.080;14.418;2023-03-19T03:29:26;99390.41;;;5.25;66.67
73633;BME280;61927;50.080;14.418;2023-03-19T03:31:52;99403.34;;;5.29;66.52
73633;BME280;61927;50.080;14.418;2023-03-19T03:34:17;99400.78;;;5.28;66.43
73633;BME280;61927;50.080;14.418;2023-03-19T03:36:43;99405.25;;;5.26;66.48
73633;BME280;61927;50.080;14.418;2023-03-19T03:39:08;99399.28;;;5.22;66.63
73633;BME280;61927;50.080;14.418;2023-03-19T03:41:34;99389.06;;;5.14;66.95
73633;BME280;61927;50.080;14.418;2023-03-19T03:43:59;99388.25;;;5.12;66.56
73633;BME280;61927;50.080;14.418;2023-03-19T03:46:25;99390.91;;;5.12;66.96
73633;BME280;61927;50.080;14.418;2023-03-19T03:48:51;99403.91;;;5.15;67.37
73633;BME280;61927;50.080;14.418;2023-03-19T03:51:17;99397.81;;;5.15;67.51
73633;BME280;61927;50.080;14.418;2023-03-19T03:53:42;99392.16;;;5.24;67.17
73633;BME280;61927;50.080;14.418;2023-03-19T03:56:08;99393.69;;;5.30;66.75
73633;BME280;61927;50.080;14.418;2023-03-19T03:58:34;99390.22;;;5.29;66.98
73633;BME280;61927;50.080;14.418;2023-03-19T04:00:59;99401.59;;;5.30;66.58
73633;BME280;61927;50.080;14.418;2023-03-19T04:03:25;99404.53;;;5.22;67.12
73633;BME280;61927;50.080;14.418;2023-03-19T04:05:51;99397.38;;;5.26;66.67
73633;BME280;61927;50.080;14.418;2023-03-19T04:08:16;99400.84;;;5.26;66.00
73633;BME280;61927;50.080;14.418;2023-03-19T04:10:42;99392.41;;;5.18;66.62
73633;BME280;61927;50.080;14.418;2023-03-19T04:13:08;99388.31;;;5.11;66.60
73633;BME280;61927;50.080;14.418;2023-03-19T04:15:33;99384.16;;;5.05;67.02
73633;BME280;61927;50.080;14.418;2023-03-19T04:17:59;99390.97;;;5.11;67.58
73633;BME280;61927;50.080;14.418;2023-03-19T04:20:25;99393.59;;;5.11;67.13
73633;BME280;61927;50.080;14.418;2023-03-19T04:22:50;99394.44;;;5.11;67.04
73633;BME280;61927;50.080;14.418;2023-03-19T04:25:16;99397.00;;;5.13;67.14
73633;BME280;61927;50.080;14.418;2023-03-19T04:27:43;99399.69;;;5.11;67.04
73633;BME280;61927;50.080;14.418;2023-03-19T04:30:08;99402.47;;;5.08;67.44
73633;BME280;61927;50.080;14.418;2023-03-19T04:32:35;99402.22;;;5.14;67.67
73633;BME280;61927;50.080;14.418;2023-03-19T04:35:01;99415.28;;;5.16;66.55
73633;BME280;61927;50.080;14.418;2023-03-19T04:37:27;99421.47;;;5.15;67.02
73633;BME280;61927;50.080;14.418;2023-03-19T04:39:53;99406.81;;;5.09;66.87
73633;BME280;61927;50.080;14.418;2023-03-19T04:42:19;99406.84;;;5.08;66.59
73633;BME280;61927;50.080;14.418;2023-03-19T04:44:44;99410.47;;;5.05;67.23
73633;BME280;61927;50.080;14.418;2023-03-19T04:47:09;99414.09;;;5.03;66.73
73633;BME280;61927;50.080;14.418;2023-03-19T04:49:35;99416.72;;;5.03;66.67
73633;BME280;61927;50.080;14.418;2023-03-19T04:52:01;99419.53;;;4.98;67.30
73633;BME280;61927;50.080;14.418;2023-03-19T04:54:26;99417.06;;;4.94;66.98
73633;BME280;61927;50.080;14.418;2023-03-19T04:56:52;99416.34;;;4.90;67.46
73633;BME280;61927;50.080;14.418;2023-03-19T04:59:18;99415.34;;;4.93;67.17
73633;BME280;61927;50.080;14.418;2023-03-19T05:01:43;99411.06;;;4.90;67.33
73633;BME280;61927;50.080;14.418;2023-03-19T05:04:09;99413.03;;;4.85;67.46
73633;BME280;61927;50.080;14.418;2023-03-19T05:06:35;99420.13;;;4.83;67.56
73633;BME280;61927;50.080;14.418;2023-03-19T05:09:02;99413.03;;;4.85;67.04
73633;BME280;61927;50.080;14.418;2023-03-19T05:11:27;99420.91;;;4.85;68.12
73633;BME280;61927;50.080;14.418;2023-03-19T05:13:53;99411.31;;;4.84;68.24
73633;BME280;61927;50.080;14.418;2023-03-19T05:16:18;99420.00;;;4.86;68.03
73633;BME280;61927;50.080;14.418;2023-03-19T05:18:44;99420.06;;;4.84;68.10
73633;BME280;61927;50.080;14.418;2023-03-19T05:21:10;99424.66;;;4.79;67.70
73633;BME280;61927;50.080;14.418;2023-03-19T05:23:36;99420.38;;;4.77;68.66
73633;BME280;61927;50.080;14.418;2023-03-19T05:26:02;99425.84;;;4.71;68.52
73633;BME280;61927;50.080;14.418;2023-03-19T05:28:27;99418.03;;;4.69;68.79
73633;BME280;61927;50.080;14.418;2023-03-19T05:30:53;99411.69;;;4.75;68.23
73633;BME280;61927;50.080;14.418;2023-03-19T05:33:18;99419.25;;;4.82;68.44
73633;BME280;61927;50.080;14.418;2023-03-19T05:35:44;99412.41;;;4.78;67.98
73633;BME280;61927;50.080;14.418;2023-03-19T05:38:09;99423.22;;;4.71;67.81
73633;BME280;61927;50.080;14.418;2023-03-19T05:40:36;99428.72;;;4.65;68.04
73633;BME280;61927;50.080;14.418;2023-03-19T05:43:01;99438.38;;;4.64;68.02
73633;BME280;61927;50.080;14.418;2023-03-19T05:45:27;99439.91;;;4.70;68.24
73633;BME280;61927;50.080;14.418;2023-03-19T05:47:52;99440.25;;;4.84;67.50
73633;BME280;61927;50.080;14.418;2023-03-19T05:50:18;99440.78;;;4.92;67.27
73633;BME280;61927;50.080;14.418;2023-03-19T05:52:43;99442.50;;;4.93;66.34
73633;BME280;61927;50.080;14.418;2023-03-19T05:55:09;99442.44;;;4.95;66.83
73633;BME280;61927;50.080;14.418;2023-03-19T05:57:35;99443.97;;;5.00;66.65
73633;BME280;61927;50.080;14.418;2023-03-19T06:00:01;99434.56;;;4.95;66.31
73633;BME280;61927;50.080;14.418;2023-03-19T06:02:50;99447.22;;;4.85;66.98
73633;BME280;61927;50.080;14.418;2023-03-19T06:05:16;99449.84;;;4.85;66.79
73633;BME280;61927;50.080;14.418;2023-03-19T06:07:42;99445.25;;;4.90;67.07
73633;BME280;61927;50.080;14.418;2023-03-19T06:10:08;99437.06;;;4.98;66.61
73633;BME280;61927;50.080;14.418;2023-03-19T06:12:33;99442.16;;;5.02;66.30
73633;BME280;61927;50.080;14.418;2023-03-19T06:14:59;99454.81;;;5.14;66.44
73633;BME280;61927;50.080;14.418;2023-03-19T06:17:24;99464.91;;;5.25;65.99
73633;BME280;61927;50.080;14.418;2023-03-19T06:19:50;99463.69;;;5.34;65.90
73633;BME280;61927;50.080;14.418;2023-03-19T06:22:15;99464.28;;;5.40;65.67
73633;BME280;61927;50.080;14.418;2023-03-19T06:24:41;99468.69;;;5.40;65.30
73633;BME280;61927;50.080;14.418;2023-03-19T06:27:06;99468.16;;;5.32;65.40
73633;BME280;61927;50.080;14.418;2023-03-19T06:29:32;99465.59;;;5.30;65.99
73633;BME280;61927;50.080;14.418;2023-03-19T06:31:57;99465.53;;;5.32;65.28
73633;BME280;61927;50.080;14.418;2023-03-19T06:34:23;99467.84;;;5.39;65.23
73633;BME280;61927;50.080;14.418;2023-03-19T06:36:48;99460.69;;;5.43;65.21
73633;BME280;61927;50.080;14.418;2023-03-19T06:39:14;99456.03;;;5.49;64.65
73633;BME280;61927;50.080;14.418;2023-03-19T06:41:39;99465.25;;;5.60;64.38
73633;BME280;61927;50.080;14.418;2023-03-19T06:44:05;99462.16;;;5.70;64.68
73633;BME280;61927;50.080;14.418;2023-03-19T06:46:30;99465.47;;;5.75;64.53
73633;BME280;61927;50.080;14.418;2023-03-19T06:48:56;99463.56;;;5.79;63.88
73633;BME280;61927;50.080;14.418;2023-03-19T06:51:21;99459.59;;;5.91;64.39
73633;BME280;61927;50.080;14.418;2023-03-19T06:53:47;99456.03;;;5.92;63.67
73633;BME280;61927;50.080;14.418;2023-03-19T06:56:12;99461.41;;;5.89;63.67
73633;BME280;61927;50.080;14.418;2023-03-19T06:58:38;99457.03;;;5.89;63.91
73633;BME280;61927;50.080;14.418;2023-03-19T07:01:04;99445.44;;;5.93;64.42
73633;BME280;61927;50.080;14.418;2023-03-19T07:03:29;99446.94;;;5.99;64.04
73633;BME280;61927;50.080;14.418;2023-03-19T07:05:55;99468.53;;;6.07;62.95
73633;BME280;61927;50.080;14.418;2023-03-19T07:08:21;99472.75;;;6.11;62.59
73633;BME280;61927;50.080;14.418;2023-03-19T07:10:46;99472.69;;;6.12;63.05
73633;BME280;61927;50.080;14.418;2023-03-19T07:13:12;99483.75;;;6.21;62.04
73633;BME280;61927;50.080;14.418;2023-03-19T07:15:37;99504.75;;;6.22;62.14
73633;BME280;61927;50.080;14.418;2023-03-19T07:18:03;99501.22;;;6.23;62.09
73633;BME280;61927;50.080;14.418;2023-03-19T07:20:28;99496.00;;;6.22;61.52
73633;BME280;61927;50.080;14.418;2023-03-19T07:22:54;99502.97;;;6.23;61.69
73633;BME280;61927;50.080;14.418;2023-03-19T07:25:19;99502.00;;;6.25;61.68
73633;BME280;61927;50.080;14.418;2023-03-19T07:27:45;99488.75;;;6.27;61.30
73633;BME280;61927;50.080;14.418;2023-03-19T07:30:10;99492.44;;;6.23;60.80
73633;BME280;61927;50.080;14.418;2023-03-19T07:32:36;99500.88;;;6.31;61.20
73633;BME280;61927;50.080;14.418;2023-03-19T07:35:03;99500.75;;;6.34;60.65
73633;BME280;61927;50.080;14.418;2023-03-19T07:37:29;99509.38;;;6.37;60.54
73633;BME280;61927;50.080;14.418;2023-03-19T07:39:54;99505.47;;;6.46;60.03
73633;BME280;61927;50.080;14.418;2023-03-19T07:42:20;99507.63;;;6.57;60.01
73633;BME280;61927;50.080;14.418;2023-03-19T07:44:46;99504.44;;;6.69;59.31
73633;BME280;61927;50.080;14.418;2023-03-19T07:47:11;99503.19;;;6.77;59.23
73633;BME280;61927;50.080;14.418;2023-03-19T07:49:37;99504.81;;;6.80;58.71
73633;BME280;61927;50.080;14.418;2023-03-19T07:52:02;99494.25;;;6.80;58.43
73633;BME280;61927;50.080;14.418;2023-03-19T07:54:28;99493.13;;;6.86;58.62
73633;BME280;61927;50.080;14.418;2023-03-19T07:56:55;99497.78;;;6.99;58.18
73633;BME280;61927;50.080;14.418;2023-03-19T07:59:20;99507.19;;;7.05;57.19
73633;BME280;61927;50.080;14.418;2023-03-19T08:01:46;99515.03;;;7.06;56.42
73633;BME280;61927;50.080;14.418;2023-03-19T08:04:11;99503.69;;;7.04;56.60
73633;BME280;61927;50.080;14.418;2023-03-19T08:06:37;99506.53;;;7.00;56.93
73633;BME280;61927;50.080;14.418;2023-03-19T08:09:04;99514.38;;;7.01;56.90
73633;BME280;61927;50.080;14.418;2023-03-19T08:11:30;99521.31;;;7.04;57.56
73633;BME280;61927;50.080;14.418;2023-03-19T08:13:55;99518.16;;;7.15;57.35
73633;BME280;61927;50.080;14.418;2023-03-19T08:16:21;99519.50;;;7.23;56.59
73633;BME280;61927;50.080;14.418;2023-03-19T08:18:46;99512.31;;;7.27;56.62
73633;BME280;61927;50.080;14.418;2023-03-19T08:21:12;99505.25;;;7.27;56.67
73633;BME280;61927;50.080;14.418;2023-03-19T08:23:37;99508.66;;;7.29;56.76
73633;BME280;61927;50.080;14.418;2023-03-19T08:26:03;99505.72;;;7.35;56.71
73633;BME280;61927;50.080;14.418;2023-03-19T08:28:28;99500.53;;;7.34;55.59
73633;BME280;61927;50.080;14.418;2023-03-19T08:30:54;99506.66;;;7.34;55.71
73633;BME280;61927;50.080;14.418;2023-03-19T08:33:20;99511.56;;;7.42;55.75
73633;BME280;61927;50.080;14.418;2023-03-19T08:35:46;99508.78;;;7.45;55.80
73633;BME280;61927;50.080;14.418;2023-03-19T08:38:11;99513.91;;;7.48;55.58
73633;BME280;61927;50.080;14.418;2023-03-19T08:40:37;99502.91;;;7.57;55.36
73633;BME280;61927;50.080;14.418;2023-03-19T08:43:02;99503.09;;;7.71;55.17
73633;BME280;61927;50.080;14.418;2023-03-19T08:45:28;99495.03;;;7.92;54.49
73633;BME280;61927;50.080;14.418;2023-03-19T08:47:53;99498.59;;;8.08;53.90
73633;BME280;61927;50.080;14.418;2023-03-19T08:50:19;99494.19;;;8.08;53.41
73633;BME280;61927;50.080;14.418;2023-03-19T08:52:45;99494.88;;;8.12;53.37
73633;BME280;61927;50.080;14.418;2023-03-19T08:55:11;99488.34;;;8.19;53.50
73633;BME280;61927;50.080;14.418;2023-03-19T08:57:36;99487.09;;;8.26;52.56
73633;BME280;61927;50.080;14.418;2023-03-19T09:00:02;99481.28;;;8.20;53.09
73633;BME280;61927;50.080;14.418;2023-03-19T09:02:30;99485.63;;;8.21;52.98
73633;BME280;61927;50.080;14.418;2023-03-19T09:04:55;99491.38;;;8.29;52.82
73633;BME280;61927;50.080;14.418;2023-03-19T09:07:21;99492.00;;;8.34;52.80
73633;BME280;61927;50.080;14.418;2023-03-19T09:09:47;99495.34;;;8.37;52.61
73633;BME280;61927;50.080;14.418;2023-03-19T09:12:13;99499.56;;;8.41;52.61
73633;BME280;61927;50.080;14.418;2023-03-19T09:14:40;99496.19;;;8.55;52.26
73633;BME280;61927;50.080;14.418;2023-03-19T09:17:06;99495.28;;;8.72;51.86
73633;BME280;61927;50.080;14.418;2023-03-19T09:19:31;99494.09;;;8.78;51.58
73633;BME280;61927;50.080;14.418;2023-03-19T09:21:57;99488.88;;;8.76;51.92
73633;BME280;61927;50.080;14.418;2023-03-19T09:24:23;99487.28;;;8.89;52.05
73633;BME280;61927;50.080;14.418;2023-03-19T09:26:48;99484.16;;;8.98;51.37
73633;BME280;61927;50.080;14.418;2023-03-19T09:29:14;99484.50;;;9.08;51.74
73633;BME280;61927;50.080;14.418;2023-03-19T09:31:40;99476.03;;;9.17;50.55
73633;BME280;61927;50.080;14.418;2023-03-19T09:34:06;99475.19;;;9.32;50.21
73633;BME280;61927;50.080;14.418;2023-03-19T09:36:33;99475.34;;;9.45;49.12
73633;BME280;61927;50.080;14.418;2023-03-19T09:38:59;99471.50;;;9.51;48.50
73633;BME280;61927;50.080;14.418;2023-03-19T09:46:27;99484.44;;;9.71;48.46
73633;BME280;61927;50.080;14.418;2023-03-19T09:49:15;99474.16;;;9.81;48.21
73633;BME280;61927;50.080;14.418;2023-03-19T09:51:48;99483.09;;;9.94;47.85
73633;BME280;61927;50.080;14.418;2023-03-19T09:56:47;99478.34;;;10.15;47.16
73633;BME280;61927;50.080;14.418;2023-03-19T09:59:13;99473.09;;;10.29;47.11
73633;BME280;61927;50.080;14.418;2023-03-19T10:01:38;99476.63;;;10.44;46.32
73633;BME280;61927;50.080;14.418;2023-03-19T10:04:11;99469.25;;;10.63;46.13
73633;BME280;61927;50.080;14.418;2023-03-19T10:06:41;99469.44;;;10.74;45.43
73633;BME280;61927;50.080;14.418;2023-03-19T10:09:19;99468.38;;;10.77;45.90
73633;BME280;61927;50.080;14.418;2023-03-19T10:14:40;99463.81;;;10.93;45.66
73633;BME280;61927;50.080;14.418;2023-03-19T10:17:09;99459.44;;;11.06;45.26
73633;BME280;61927;50.080;14.418;2023-03-19T10:19:41;99446.72;;;11.11;44.69
73633;BME280;61927;50.080;14.418;2023-03-19T10:22:17;99456.19;;;11.15;44.48
73633;BME280;61927;50.080;14.418;2023-03-19T10:24:45;99455.91;;;11.20;44.54
73633;BME280;61927;50.080;14.418;2023-03-19T10:27:13;99456.44;;;11.25;44.19
73633;BME280;61927;50.080;14.418;2023-03-19T10:29:39;99453.97;;;11.36;44.11
73633;BME280;61927;50.080;14.418;2023-03-19T10:34:40;99450.03;;;11.69;43.31
73633;BME280;61927;50.080;14.418;2023-03-19T10:37:22;99446.03;;;11.76;43.02
73633;BME280;61927;50.080;14.418;2023-03-19T10:39:51;99444.91;;;11.92;42.96
73633;BME280;61927;50.080;14.418;2023-03-19T10:45:09;99452.84;;;12.19;42.41
73633;BME280;61927;50.080;14.418;2023-03-19T10:47:38;99439.66;;;12.31;42.15
73633;BME280;61927;50.080;14.418;2023-03-19T10:50:04;99430.91;;;12.41;41.69
73633;BME280;61927;50.080;14.418;2023-03-19T10:52:31;99418.69;;;12.39;41.14
73633;BME280;61927;50.080;14.418;2023-03-19T10:55:18;99418.03;;;12.35;41.28
73633;BME280;61927;50.080;14.418;2023-03-19T10:57:47;99430.38;;;12.36;42.37
73633;BME280;61927;50.080;14.418;2023-03-19T11:00:15;99428.03;;;12.44;40.23
73633;BME280;61927;50.080;14.418;2023-03-19T11:02:48;99419.53;;;12.52;40.33
73633;BME280;61927;50.080;14.418;2023-03-19T11:05:22;99425.69;;;12.65;40.27
73633;BME280;61927;50.080;14.418;2023-03-19T11:07:55;99423.13;;;12.64;39.77
73633;BME280;61927;50.080;14.418;2023-03-19T11:10:23;99418.22;;;12.70;40.06
73633;BME280;61927;50.080;14.418;2023-03-19T11:12:54;99422.16;;;12.77;40.05
73633;BME280;61927;50.080;14.418;2023-03-19T11:15:21;99427.91;;;12.71;39.27
73633;BME280;61927;50.080;14.418;2023-03-19T11:17:57;99425.06;;;12.61;39.92
73633;BME280;61927;50.080;14.418;2023-03-19T11:20:29;99420.47;;;12.64;40.28
73633;BME280;61927;50.080;14.418;2023-03-19T11:22:56;99424.06;;;12.75;40.27
73633;BME280;61927;50.080;14.418;2023-03-19T11:30:25;99418.66;;;13.13;38.57
73633;BME280;61927;50.080;14.418;2023-03-19T11:33:15;99406.06;;;13.15;38.57
73633;BME280;61927;50.080;14.418;2023-03-19T11:38:31;99408.59;;;13.30;38.28
73633;BME280;61927;50.080;14.418;2023-03-19T11:43:42;99400.72;;;13.28;38.57
73633;BME280;61927;50.080;14.418;2023-03-19T11:46:15;99397.31;;;13.26;38.77
73633;BME280;61927;50.080;14.418;2023-03-19T11:48:57;99386.44;;;13.29;38.77
73633;BME280;61927;50.080;14.418;2023-03-19T11:51:29;99390.91;;;13.29;38.27
73633;BME280;61927;50.080;14.418;2023-03-19T12:04:00;99379.97;;;13.79;37.33
73633;BME280;61927;50.080;14.418;2023-03-19T12:06:35;99383.03;;;13.86;36.77
73633;BME280;61927;50.080;14.418;2023-03-19T12:24:58;99375.06;;;14.08;36.92
73633;BME280;61927;50.080;14.418;2023-03-19T12:27:08;99371.19;;;14.12;36.81
73633;BME280;61927;50.080;14.418;2023-03-19T12:34:52;99372.03;;;14.02;37.43
73633;BME280;61927;50.080;14.418;2023-03-19T12:39:54;99367.66;;;14.01;37.51
73633;BME280;61927;50.080;14.418;2023-03-19T12:42:31;99369.59;;;13.99;36.94
73633;BME280;61927;50.080;14.418;2023-03-19T12:44:58;99367.78;;;13.99;37.10
73633;BME280;61927;50.080;14.418;2023-03-19T12:47:26;99365.00;;;14.12;37.18
73633;BME280;61927;50.080;14.418;2023-03-19T12:50:10;99371.44;;;14.20;37.07
73633;BME280;61927;50.080;14.418;2023-03-19T12:52:42;99366.34;;;14.29;36.76
73633;BME280;61927;50.080;14.418;2023-03-19T12:55:32;99367.56;;;14.36;37.05
73633;BME280;61927;50.080;14.418;2023-03-19T12:58:12;99371.09;;;14.25;36.97
73633;BME280;61927;50.080;14.418;2023-03-19T13:00:41;99371.44;;;14.20;37.47
73633;BME280;61927;50.080;14.418;2023-03-19T13:03:32;99371.91;;;14.03;37.74
73633;BME280;61927;50.080;14.418;2023-03-19T13:08:36;99364.41;;;14.08;37.62
73633;BME280;61927;50.080;14.418;2023-03-19T13:11:05;99361.72;;;13.97;37.98
73633;BME280;61927;50.080;14.418;2023-03-19T13:18:56;99364.41;;;14.08;37.63
73633;BME280;61927;50.080;14.418;2023-03-19T13:21:26;99371.53;;;14.08;37.79
73633;BME280;61927;50.080;14.418;2023-03-19T13:24:16;99366.81;;;14.11;37.65
73633;BME280;61927;50.080;14.418;2023-03-19T13:26:38;99374.44;;;14.05;37.94
73633;BME280;61927;50.080;14.418;2023-03-19T13:31:32;99380.72;;;13.93;38.09
73633;BME280;61927;50.080;14.418;2023-03-19T13:34:20;99370.66;;;13.85;38.27
73633;BME280;61927;50.080;14.418;2023-03-19T13:36:46;99366.53;;;13.81;38.75
73633;BME280;61927;50.080;14.418;2023-03-19T13:39:19;99370.75;;;13.72;38.88
73633;BME280;61927;50.080;14.418;2023-03-19T13:46:59;99367.94;;;13.74;39.19
73633;BME280;61927;50.080;14.418;2023-03-19T13:49:28;99363.34;;;13.76;39.23
73633;BME280;61927;50.080;14.418;2023-03-19T13:54:39;99363.59;;;13.73;39.32
73633;BME280;61927;50.080;14.418;2023-03-19T13:57:15;99363.34;;;13.76;39.27
73633;BME280;61927;50.080;14.418;2023-03-19T13:59:43;99370.03;;;13.81;39.36
73633;BME280;61927;50.080;14.418;2023-03-19T14:07:21;99366.84;;;13.65;40.17
73633;BME280;61927;50.080;14.418;2023-03-19T14:09:49;99359.31;;;13.59;40.58
73633;BME280;61927;50.080;14.418;2023-03-19T14:14:51;99361.41;;;13.78;40.42
73633;BME280;61927;50.080;14.418;2023-03-19T14:19:44;99359.63;;;13.89;40.17
73633;BME280;61927;50.080;14.418;2023-03-19T14:22:20;99354.91;;;13.93;40.16
73633;BME280;61927;50.080;14.418;2023-03-19T14:24:55;99359.59;;;13.78;40.33
73633;BME280;61927;50.080;14.418;2023-03-19T14:27:26;99354.63;;;13.74;40.74
73633;BME280;61927;50.080;14.418;2023-03-19T14:30:43;99362.38;;;13.77;40.87